createdAt,value
2023-04-05T00:02:21.543Z,3.30
2023-04-05T00:04:54.815Z,3.42
2023-04-05T00:07:22.118Z,3.35
2023-04-05T00:09:49.708Z,3.23
2023-04-05T00:12:16.934Z,2.78
2023-04-05T00:14:44.071Z,2.76
2023-04-05T00:17:12.631Z,2.89
2023-04-05T00:19:40.004Z,2.96
2023-04-05T00:22:10.579Z,2.71
2023-04-05T00:24:42.080Z,2.74
2023-04-05T00:27:09.375Z,2.92
2023-04-05T00:29:36.629Z,3.07
2023-04-05T00:32:04.804Z,3.09
2023-04-05T00:34:33.778Z,3.03
2023-04-05T00:37:01.418Z,3.02
2023-04-05T00:39:29.092Z,2.89
2023-04-05T00:41:56.338Z,2.93
2023-04-05T00:44:23.510Z,2.87
2023-04-05T00:46:51.183Z,2.93
2023-04-05T00:49:18.795Z,2.70
2023-04-05T00:51:46.434Z,2.77
2023-04-05T00:54:14.156Z,3.07
2023-04-05T00:56:41.447Z,2.95
2023-04-05T00:59:11.790Z,2.83
2023-04-05T01:01:40.440Z,2.93
2023-04-05T01:04:07.738Z,3.00
2023-04-05T01:06:44.132Z,2.90
2023-04-05T01:09:17.563Z,2.81
2023-04-05T01:11:45.242Z,2.84
2023-04-05T01:14:12.742Z,2.82
2023-04-05T01:16:39.956Z,2.73
2023-04-05T01:19:10.016Z,2.09
2023-04-05T01:21:38.149Z,2.86
2023-04-05T01:24:30.674Z,2.86
2023-04-05T01:27:02.253Z,2.90
2023-04-05T01:29:37.462Z,2.89
2023-04-05T01:32:08.064Z,2.72
2023-04-05T01:34:47.683Z,2.16
2023-04-05T01:37:16.403Z,1.33
2023-04-05T01:39:43.620Z,2.01
2023-04-05T01:42:10.791Z,1.07
2023-04-05T01:44:40.039Z,1.15
2023-04-05T01:47:07.189Z,0.58
2023-04-05T01:49:34.370Z,0.58
2023-04-05T01:52:02.009Z,1.45
2023-04-05T01:54:29.166Z,1.98
2023-04-05T01:56:56.885Z,2.39
2023-04-05T01:59:24.502Z,1.24
2023-04-05T02:01:51.974Z,1.04
2023-04-05T02:04:19.459Z,0.78
2023-04-05T02:06:46.663Z,0.48
2023-04-05T02:09:13.897Z,1.52
2023-04-05T02:11:41.304Z,1.10
2023-04-05T02:14:10.630Z,2.48
2023-04-05T02:16:37.845Z,2.77
2023-04-05T02:19:06.067Z,2.79
2023-04-05T02:21:33.579Z,2.84
2023-04-05T02:24:00.897Z,2.70
2023-04-05T02:26:28.052Z,2.77
2023-04-05T02:28:56.020Z,2.59
2023-04-05T02:31:23.270Z,2.22
2023-04-05T02:33:50.714Z,2.14
2023-04-05T02:36:18.570Z,2.42
2023-04-05T02:38:46.109Z,0.87
2023-04-05T02:41:13.304Z,0.48
2023-04-05T02:43:40.895Z,1.23
2023-04-05T02:46:08.105Z,1.96
2023-04-05T02:48:37.392Z,0.54
2023-04-05T02:51:04.997Z,0.02
2023-04-05T02:53:32.180Z,0.07
2023-04-05T02:56:00.176Z,-0.04
2023-04-05T02:58:28.548Z,-0.29
2023-04-05T03:00:56.339Z,0.58
2023-04-05T03:03:24.440Z,1.64
2023-04-05T03:06:00.474Z,1.47
2023-04-05T03:08:28.862Z,0.95
2023-04-05T03:10:57.520Z,1.51
2023-04-05T03:13:24.715Z,0.80
2023-04-05T03:15:56.054Z,1.13
2023-04-05T03:18:25.881Z,0.89
2023-04-05T03:20:57.327Z,0.49
2023-04-05T03:23:27.381Z,0.37
2023-04-05T03:25:57.974Z,0.91
2023-04-05T03:28:26.438Z,0.15
2023-04-05T03:30:54.893Z,0.08
2023-04-05T03:33:22.226Z,0.36
2023-04-05T03:35:50.398Z,0.30
2023-04-05T03:38:17.908Z,0.44
2023-04-05T03:40:46.181Z,1.12
2023-04-05T03:43:13.786Z,1.37
2023-04-05T03:45:41.254Z,1.37
2023-04-05T03:48:08.686Z,1.33
2023-04-05T03:50:36.320Z,1.22
2023-04-05T03:53:03.483Z,1.34
2023-04-05T03:55:31.511Z,0.84
2023-04-05T03:58:01.320Z,0.95
2023-04-05T04:00:29.716Z,0.34
2023-04-05T04:03:00.461Z,0.56
2023-04-05T04:05:28.070Z,0.63
2023-04-05T04:07:55.476Z,-0.06
2023-04-05T04:10:23.777Z,0.71
2023-04-05T04:12:51.136Z,0.20
2023-04-05T04:15:19.252Z,0.01
2023-04-05T04:17:46.988Z,0.44
2023-04-05T04:20:14.946Z,0.48
2023-04-05T04:22:42.691Z,0.33
2023-04-05T04:25:11.404Z,-0.28
2023-04-05T04:27:43.488Z,0.74
2023-04-05T04:30:12.224Z,1.26
2023-04-05T04:33:05.400Z,1.59
2023-04-05T04:35:35.048Z,1.58
2023-04-05T04:38:03.851Z,1.27
2023-04-05T04:40:38.687Z,1.06
2023-04-05T04:43:14.439Z,0.47
2023-04-05T04:45:42.084Z,0.83
2023-04-05T04:48:14.081Z,0.27
2023-04-05T04:50:41.437Z,0.49
2023-04-05T04:53:08.613Z,0.58
2023-04-05T04:55:36.254Z,0.30
2023-04-05T04:58:10.111Z,0.45
2023-04-05T05:00:42.072Z,0.38
2023-04-05T05:03:11.560Z,0.48
2023-04-05T05:05:46.843Z,0.50
2023-04-05T05:08:19.710Z,0.42
2023-04-05T05:10:54.941Z,0.53
2023-04-05T05:13:22.357Z,0.74
2023-04-05T05:15:49.863Z,0.45
2023-04-05T05:18:17.227Z,0.63
2023-04-05T05:20:44.607Z,0.98
2023-04-05T05:23:12.264Z,1.11
2023-04-05T05:25:39.482Z,1.14
2023-04-05T05:28:06.784Z,0.95
2023-04-05T05:30:34.378Z,0.83
2023-04-05T05:33:02.474Z,0.70
2023-04-05T05:35:29.700Z,0.62
2023-04-05T05:37:57.222Z,0.58
2023-04-05T05:40:26.860Z,0.64
2023-04-05T05:42:54.150Z,0.79
2023-04-05T05:45:21.562Z,0.90
2023-04-05T05:47:48.831Z,0.79
2023-04-05T05:50:17.228Z,0.74
2023-04-05T05:52:44.738Z,0.93
2023-04-05T05:55:11.883Z,0.79
2023-04-05T05:57:39.156Z,0.97
2023-04-05T06:00:10.676Z,1.18
2023-04-05T06:02:38.836Z,1.05
2023-04-05T06:05:06.671Z,0.95
2023-04-05T06:07:37.795Z,1.57
2023-04-05T06:10:05.548Z,1.21
2023-04-05T06:12:33.139Z,1.59
2023-04-05T06:15:00.957Z,1.63
2023-04-05T06:17:28.706Z,1.71
2023-04-05T06:19:56.285Z,1.83
2023-04-05T06:22:23.708Z,1.94
2023-04-05T06:24:50.969Z,2.12
2023-04-05T06:27:18.398Z,2.35
2023-04-05T06:29:45.782Z,2.59
2023-04-05T06:32:12.932Z,2.54
2023-04-05T06:34:40.654Z,2.89
2023-04-05T06:37:07.785Z,3.07
2023-04-05T06:39:34.953Z,2.97
2023-04-05T06:42:02.732Z,2.52
2023-04-05T06:44:33.137Z,2.79
2023-04-05T06:47:00.416Z,3.12
2023-04-05T06:49:27.926Z,3.15
2023-04-05T06:51:55.568Z,3.10
2023-04-05T06:54:24.604Z,2.92
2023-04-05T06:56:52.173Z,3.64
2023-04-05T06:59:19.750Z,3.78
2023-04-05T07:01:47.286Z,3.41
2023-04-05T07:04:15.001Z,3.90
2023-04-05T07:06:42.250Z,3.52
2023-04-05T07:09:09.551Z,3.57
2023-04-05T07:11:37.104Z,4.16
2023-04-05T07:14:04.356Z,3.73
2023-04-05T07:16:31.719Z,2.85
2023-04-05T07:18:59.368Z,3.76
2023-04-05T07:21:27.164Z,3.81
2023-04-05T07:23:56.095Z,3.67
2023-04-05T07:26:23.613Z,4.14
2023-04-05T07:28:50.791Z,4.57
2023-04-05T07:31:17.986Z,4.24
2023-04-05T07:33:45.740Z,4.40
2023-04-05T07:36:15.465Z,4.48
2023-04-05T07:38:43.577Z,3.79
2023-04-05T07:41:11.614Z,4.11
2023-04-05T07:43:38.943Z,4.64
2023-04-05T07:46:06.194Z,5.02
2023-04-05T07:48:33.681Z,4.88
2023-04-05T07:51:07.435Z,5.47
2023-04-05T07:53:36.322Z,4.88
2023-04-05T07:56:07.381Z,5.31
2023-04-05T07:58:35.347Z,5.39
2023-04-05T08:01:03.646Z,5.61
2023-04-05T08:03:32.045Z,5.46
2023-04-05T08:05:59.476Z,5.16
2023-04-05T08:08:26.713Z,5.59
2023-04-05T08:10:54.888Z,5.91
2023-04-05T08:13:22.392Z,5.53
2023-04-05T08:15:50.130Z,5.74
2023-04-05T08:18:19.261Z,6.46
2023-04-05T08:20:50.986Z,7.54
2023-04-05T08:23:18.742Z,6.85
2023-04-05T08:25:47.240Z,10.06
2023-04-05T08:28:14.494Z,9.46
2023-04-05T08:30:42.553Z,11.61
2023-04-05T08:33:10.446Z,10.02
2023-04-05T08:35:37.753Z,9.42
2023-04-05T08:38:06.756Z,8.48
2023-04-05T08:40:40.868Z,9.91
2023-04-05T08:43:11.638Z,10.36
2023-04-05T08:45:47.989Z,9.50
2023-04-05T08:48:16.385Z,8.27
2023-04-05T08:50:49.972Z,7.36
2023-04-05T08:53:17.656Z,7.61
2023-04-05T08:55:44.828Z,6.54
2023-04-05T08:58:13.291Z,5.54
2023-04-05T09:00:41.386Z,5.61
2023-04-05T09:03:09.199Z,5.97
2023-04-05T09:05:36.895Z,6.25
2023-04-05T09:08:04.463Z,5.78
2023-04-05T09:10:31.627Z,5.46
2023-04-05T09:12:59.997Z,5.71
2023-04-05T09:15:27.654Z,5.52
2023-04-05T09:17:54.977Z,5.12
2023-04-05T09:20:22.218Z,5.18
2023-04-05T09:22:49.738Z,6.42
2023-04-05T09:25:32.363Z,6.17
2023-04-05T09:28:00.136Z,6.72
2023-04-05T09:30:30.286Z,5.60
2023-04-05T09:32:57.535Z,6.09
2023-04-05T09:35:25.748Z,6.04
2023-04-05T09:37:53.894Z,6.31
2023-04-05T09:40:23.148Z,5.78
2023-04-05T09:42:51.292Z,6.34
2023-04-05T09:45:18.857Z,6.83
2023-04-05T09:47:58.773Z,7.58
2023-04-05T09:50:26.425Z,6.73
2023-04-05T09:53:05.730Z,7.09
2023-04-05T09:55:33.432Z,7.62
2023-04-05T09:58:01.312Z,6.78
2023-04-05T10:00:29.260Z,6.69
2023-04-05T10:02:56.853Z,6.70
2023-04-05T10:05:25.152Z,8.37
2023-04-05T10:07:52.884Z,8.20
2023-04-05T10:10:20.624Z,8.59
2023-04-05T10:12:47.918Z,7.26
2023-04-05T10:15:15.876Z,8.11
2023-04-05T10:17:51.591Z,7.39
2023-04-05T10:20:19.917Z,8.15
2023-04-05T10:23:01.330Z,8.61
2023-04-05T10:25:35.681Z,8.26
2023-04-05T10:28:06.942Z,7.71
2023-04-05T10:30:36.968Z,7.48
2023-04-05T10:33:07.844Z,7.26
2023-04-05T10:35:38.439Z,7.88
2023-04-05T10:38:12.084Z,8.14
2023-04-05T10:40:39.514Z,7.29
2023-04-05T10:43:07.249Z,8.15
2023-04-05T10:45:35.882Z,7.85
2023-04-05T10:48:07.084Z,7.82
2023-04-05T10:50:34.605Z,7.84
2023-04-05T10:53:01.901Z,8.59
2023-04-05T10:55:29.313Z,8.04
2023-04-05T10:57:56.912Z,8.34
2023-04-05T11:00:24.456Z,8.11
2023-04-05T11:02:54.032Z,8.37
2023-04-05T11:05:32.920Z,8.85
2023-04-05T11:08:01.114Z,9.04
2023-04-05T11:10:29.510Z,9.51
2023-04-05T11:12:56.687Z,9.23
2023-04-05T11:15:30.227Z,9.30
2023-04-05T11:18:04.906Z,8.63
2023-04-05T11:20:42.746Z,9.59
2023-04-05T11:23:10.883Z,10.55
2023-04-05T11:25:41.635Z,10.55
2023-04-05T11:28:09.293Z,9.63
2023-04-05T11:30:46.436Z,9.91
2023-04-05T11:33:33.548Z,9.32
2023-04-05T11:36:02.884Z,10.35
2023-04-05T11:38:30.294Z,9.75
2023-04-05T11:41:07.431Z,10.31
2023-04-05T11:43:35.583Z,9.61
2023-04-05T11:46:04.390Z,10.48
2023-04-05T11:48:31.570Z,9.71
2023-04-05T11:50:59.261Z,9.86
2023-04-05T11:53:26.614Z,9.32
2023-04-05T11:55:55.405Z,9.74
2023-04-05T11:58:23.925Z,10.19
2023-04-05T12:00:58.143Z,10.65
2023-04-05T12:03:26.516Z,9.90
2023-04-05T12:05:54.147Z,9.75
2023-04-05T12:08:21.764Z,10.54
2023-04-05T12:10:58.787Z,10.02
2023-04-05T12:13:29.511Z,9.40
2023-04-05T12:16:00.732Z,10.13
2023-04-05T12:18:29.024Z,10.37
2023-04-05T12:20:56.654Z,9.62
2023-04-05T12:23:24.704Z,9.36
2023-04-05T12:25:53.304Z,10.14
2023-04-05T12:28:20.985Z,10.09
2023-04-05T12:30:51.488Z,10.31
2023-04-05T12:33:28.538Z,10.54
2023-04-05T12:35:56.400Z,9.80
2023-04-05T12:38:25.412Z,9.96
2023-04-05T12:40:52.580Z,10.52
2023-04-05T12:43:20.456Z,9.27
2023-04-05T12:45:50.363Z,9.72
2023-04-05T12:48:25.816Z,10.31
2023-04-05T12:50:55.118Z,10.02
2023-04-05T12:53:23.865Z,10.41
2023-04-05T12:55:54.952Z,10.49
2023-04-05T12:58:35.537Z,10.48
2023-04-05T13:01:03.393Z,10.91
2023-04-05T13:03:31.249Z,10.50
2023-04-05T13:05:58.715Z,10.92
2023-04-05T13:08:27.677Z,10.65
2023-04-05T13:10:57.728Z,10.31
2023-04-05T13:13:25.596Z,10.84
2023-04-05T13:15:52.873Z,10.91
2023-04-05T13:18:20.679Z,10.27
2023-04-05T13:20:47.941Z,10.20
2023-04-05T13:23:15.126Z,10.29
2023-04-05T13:25:43.679Z,10.68
2023-04-05T13:28:11.049Z,10.60
2023-04-05T13:30:38.243Z,10.12
2023-04-05T13:33:06.789Z,10.02
2023-04-05T13:35:34.299Z,9.82
2023-04-05T13:38:04.213Z,10.27
2023-04-05T13:40:32.614Z,10.33
2023-04-05T13:43:00.357Z,9.82
2023-04-05T13:45:28.968Z,9.78
2023-04-05T13:47:56.686Z,10.45
2023-04-05T13:50:24.317Z,9.74
2023-04-05T13:52:51.954Z,9.91
2023-04-05T13:55:20.519Z,10.32
2023-04-05T13:57:47.708Z,10.24
2023-04-05T14:00:15.235Z,10.02
2023-04-05T14:02:43.035Z,9.87
2023-04-05T14:05:10.392Z,10.35
2023-04-05T14:07:37.715Z,10.00
2023-04-05T14:10:06.630Z,10.39
2023-04-05T14:12:34.323Z,10.03
2023-04-05T14:15:01.766Z,10.26
2023-04-05T14:17:29.251Z,9.99
2023-04-05T14:19:56.440Z,9.74
2023-04-05T14:22:23.609Z,10.45
2023-04-05T14:24:51.029Z,10.48
2023-04-05T14:27:18.210Z,10.12
2023-04-05T14:29:46.146Z,10.08
2023-04-05T14:32:13.618Z,10.98
2023-04-05T14:34:40.828Z,10.99
2023-04-05T14:37:08.110Z,10.10
2023-04-05T14:39:35.554Z,10.03
2023-04-05T14:42:03.194Z,10.63
2023-04-05T14:44:30.486Z,9.63
2023-04-05T14:46:57.937Z,9.48
2023-04-05T14:49:25.415Z,10.07
2023-04-05T14:51:53.149Z,10.54
2023-04-05T14:54:20.576Z,10.22
2023-04-05T14:56:47.800Z,10.34
2023-04-05T14:59:16.003Z,9.71
2023-04-05T15:01:45.573Z,9.92
2023-04-05T15:04:12.980Z,8.80
2023-04-05T15:06:40.370Z,9.59
2023-04-05T15:09:07.875Z,9.79
2023-04-05T15:11:38.612Z,9.18
2023-04-05T15:14:06.074Z,9.72
2023-04-05T15:16:33.533Z,9.82
2023-04-05T15:19:00.982Z,9.87
2023-04-05T15:21:28.334Z,9.95
2023-04-05T15:23:55.960Z,9.72
2023-04-05T15:26:23.157Z,9.10
2023-04-05T15:28:50.521Z,9.29
2023-04-05T15:31:18.669Z,9.37
2023-04-05T15:33:46.277Z,9.08
2023-04-05T15:36:13.642Z,9.42
2023-04-05T15:38:41.112Z,9.91
2023-04-05T15:41:08.434Z,9.48
2023-04-05T15:43:35.944Z,9.81
2023-04-05T15:46:05.142Z,9.32
2023-04-05T15:48:35.307Z,9.74
2023-04-05T15:51:02.453Z,9.37
2023-04-05T15:53:29.906Z,10.00
2023-04-05T15:55:58.388Z,9.58
2023-04-05T15:58:25.621Z,10.27
2023-04-05T16:00:53.064Z,8.94
2023-04-05T16:03:20.835Z,9.55
2023-04-05T16:05:48.064Z,9.04
2023-04-05T16:08:15.213Z,9.03
2023-04-05T16:10:42.862Z,9.98
2023-04-05T16:13:11.221Z,10.26
2023-04-05T16:15:38.447Z,10.07
2023-04-05T16:18:06.701Z,9.87
2023-04-05T16:20:34.190Z,9.37
2023-04-05T16:23:01.925Z,9.54
2023-04-05T16:25:29.641Z,10.12
2023-04-05T16:27:56.842Z,10.12
2023-04-05T16:30:24.036Z,10.00
2023-04-05T16:32:52.227Z,9.00
2023-04-05T16:35:19.596Z,8.98
2023-04-05T16:37:46.909Z,10.33
2023-04-05T16:40:14.518Z,9.52
2023-04-05T16:42:41.799Z,9.94
2023-04-05T16:45:09.338Z,9.64
2023-04-05T16:47:37.131Z,9.48
2023-04-05T16:50:04.605Z,9.37
2023-04-05T16:52:32.061Z,9.60
2023-04-05T16:54:59.503Z,9.56
2023-04-05T16:57:26.708Z,9.54
2023-04-05T16:59:53.989Z,9.52
2023-04-05T17:02:21.468Z,9.61
2023-04-05T17:04:48.685Z,9.78
2023-04-05T17:07:15.862Z,9.83
2023-04-05T17:09:43.318Z,9.62
2023-04-05T17:12:12.207Z,10.03
2023-04-05T17:14:39.774Z,10.08
2023-04-05T17:17:07.238Z,10.09
2023-04-05T17:19:34.440Z,10.21
2023-04-05T17:22:01.758Z,10.33
2023-04-05T17:24:33.536Z,10.08
2023-04-05T17:27:01.272Z,10.22
2023-04-05T17:29:28.840Z,10.07
2023-04-05T17:31:57.028Z,10.03
2023-04-05T17:34:24.158Z,10.17
2023-04-05T17:36:52.833Z,10.34
2023-04-05T17:39:20.118Z,10.16
2023-04-05T17:41:47.481Z,9.80
2023-04-05T17:44:15.196Z,9.79
2023-04-05T17:46:48.730Z,9.23
2023-04-05T17:49:21.797Z,8.75
2023-04-05T17:51:49.241Z,8.40
2023-04-05T17:54:16.544Z,8.62
2023-04-05T17:56:44.364Z,8.48
2023-04-05T17:59:11.676Z,8.59
2023-04-05T18:01:39.733Z,8.28
2023-04-05T18:04:09.355Z,8.14
2023-04-05T18:06:38.623Z,8.25
2023-04-05T18:09:08.839Z,8.34
2023-04-05T18:11:37.348Z,8.20
2023-04-05T18:14:05.768Z,8.34
2023-04-05T18:16:34.632Z,8.37
2023-04-05T18:19:02.129Z,8.18
2023-04-05T18:21:29.322Z,8.18
2023-04-05T18:23:58.027Z,7.84
2023-04-05T18:26:25.690Z,7.84
2023-04-05T18:28:59.741Z,7.93
2023-04-05T18:31:28.483Z,6.64
2023-04-05T18:33:55.712Z,6.73
2023-04-05T18:36:25.595Z,6.77
2023-04-05T18:38:53.812Z,7.01
2023-04-05T18:41:21.136Z,6.96
2023-04-05T18:43:49.218Z,6.91
2023-04-05T18:46:18.760Z,6.17
2023-04-05T18:48:46.821Z,6.29
2023-04-05T18:51:14.030Z,5.94
2023-04-05T18:53:41.589Z,6.06
2023-04-05T18:56:09.453Z,5.71
2023-04-05T18:58:37.184Z,6.97
2023-04-05T19:01:05.942Z,7.04
2023-04-05T19:03:33.582Z,6.61
2023-04-05T19:06:01.169Z,6.00
2023-04-05T19:08:31.011Z,5.49
2023-04-05T19:11:01.292Z,4.77
2023-04-05T19:13:30.098Z,4.77
2023-04-05T19:15:57.768Z,4.76
2023-04-05T19:18:29.257Z,4.25
2023-04-05T19:20:57.722Z,4.25
2023-04-05T19:23:25.909Z,4.75
2023-04-05T19:25:57.038Z,5.70
2023-04-05T19:28:24.925Z,5.61
2023-04-05T19:30:52.588Z,6.20
2023-04-05T19:33:21.554Z,5.43
2023-04-05T19:35:50.101Z,5.04
2023-04-05T19:38:17.785Z,4.27
2023-04-05T19:40:45.101Z,4.88
2023-04-05T19:43:13.125Z,4.30
2023-04-05T19:45:40.788Z,3.77
2023-04-05T19:48:28.084Z,3.86
2023-04-05T19:50:57.489Z,3.30
2023-04-05T19:53:32.251Z,3.86
2023-04-05T19:56:00.110Z,3.31
2023-04-05T19:58:28.017Z,3.03
2023-04-05T20:00:55.645Z,2.93
2023-04-05T20:03:33.103Z,3.04
2023-04-05T20:06:09.582Z,3.23
2023-04-05T20:08:38.325Z,3.74
2023-04-05T20:11:07.929Z,4.14
2023-04-05T20:13:42.329Z,3.57
2023-04-05T20:16:10.806Z,4.24
2023-04-05T20:18:38.329Z,4.56
2023-04-05T20:21:06.318Z,4.34
2023-04-05T20:23:33.797Z,4.72
2023-04-05T20:26:01.076Z,5.06
2023-04-05T20:28:40.489Z,5.09
2023-04-05T20:31:15.923Z,4.80
2023-04-05T20:33:47.495Z,4.66
2023-04-05T20:36:21.937Z,4.66
2023-04-05T20:38:49.420Z,5.13
2023-04-05T20:41:18.593Z,5.21
2023-04-05T20:43:45.980Z,4.15
2023-04-05T20:46:13.386Z,3.85
2023-04-05T20:48:40.926Z,3.48
2023-04-05T20:51:08.737Z,4.66
2023-04-05T20:53:36.580Z,5.28
2023-04-05T20:56:04.662Z,4.66
2023-04-05T20:58:32.014Z,4.92
2023-04-05T21:01:02.959Z,5.22
2023-04-05T21:03:31.878Z,5.57
2023-04-05T21:05:59.546Z,5.51
2023-04-05T21:08:27.010Z,5.07
2023-04-05T21:10:54.725Z,4.47
2023-04-05T21:13:22.117Z,3.62
2023-04-05T21:15:49.376Z,4.36
2023-04-05T21:18:17.026Z,4.01
2023-04-05T21:20:50.511Z,3.55
2023-04-05T21:23:18.666Z,3.38
2023-04-05T21:25:46.134Z,3.02
2023-04-05T21:28:13.819Z,2.79
2023-04-05T21:30:41.343Z,2.78
2023-04-05T21:33:08.595Z,3.18
2023-04-05T21:35:35.974Z,3.94
2023-04-05T21:38:03.633Z,3.66
2023-04-05T21:40:30.894Z,4.19
2023-04-05T21:42:58.234Z,4.00
2023-04-05T21:45:25.833Z,4.35
2023-04-05T21:47:53.133Z,3.62
2023-04-05T21:50:20.485Z,4.62
2023-04-05T21:52:47.999Z,4.65
2023-04-05T21:55:15.347Z,4.61
2023-04-05T21:57:42.533Z,4.12
2023-04-05T22:00:12.098Z,4.16
2023-04-05T22:02:40.001Z,4.35
2023-04-05T22:05:07.863Z,4.66
2023-04-05T22:07:35.626Z,4.65
2023-04-05T22:10:03.481Z,4.99
2023-04-05T22:12:31.105Z,5.10
2023-04-05T22:14:58.315Z,4.38
2023-04-05T22:17:25.610Z,3.84
2023-04-05T22:19:53.183Z,3.25
2023-04-05T22:22:20.499Z,3.33
2023-04-05T22:24:48.963Z,3.27
2023-04-05T22:27:16.396Z,3.65
2023-04-05T22:29:43.559Z,4.32
2023-04-05T22:32:10.902Z,4.55
2023-04-05T22:34:38.976Z,4.44
2023-04-05T22:37:06.403Z,4.14
2023-04-05T22:39:33.562Z,3.21
2023-04-05T22:42:01.539Z,3.53
2023-04-05T22:44:28.773Z,4.47
2023-04-05T22:46:55.929Z,4.82
2023-04-05T22:49:23.391Z,4.28
2023-04-05T22:51:50.544Z,4.04
2023-04-05T22:54:17.724Z,3.33
2023-04-05T22:56:45.456Z,2.45
2023-04-05T22:59:12.722Z,2.11
2023-04-05T23:01:40.054Z,3.66
2023-04-05T23:04:07.786Z,4.08
2023-04-05T23:06:35.187Z,3.38
2023-04-05T23:09:04.356Z,3.68
2023-04-05T23:11:31.854Z,2.90
2023-04-05T23:13:59.086Z,1.86
2023-04-05T23:16:26.625Z,1.65
2023-04-05T23:18:54.251Z,1.73
2023-04-05T23:21:21.528Z,1.67
2023-04-05T23:23:48.788Z,1.49
2023-04-05T23:26:16.262Z,1.49
2023-04-05T23:28:43.467Z,2.07
2023-04-05T23:31:10.886Z,1.73
2023-04-05T23:33:38.375Z,1.85
2023-04-05T23:36:05.935Z,1.58
2023-04-05T23:38:33.123Z,1.50
2023-04-05T23:41:00.546Z,1.61
2023-04-05T23:43:27.752Z,1.28
2023-04-05T23:45:54.932Z,1.16
2023-04-05T23:48:22.414Z,1.20
2023-04-05T23:50:49.810Z,1.07
2023-04-05T23:53:17.014Z,0.72
2023-04-05T23:55:44.447Z,0.59
2023-04-05T23:58:11.612Z,0.69
